sensor_id;sensor_type;location;lat;lon;timestamp;P1;durP1;ratioP1;P2;durP2;ratioP2
2972;SDS011;1496;51.404;7.232;2023-03-21T00:00:56;16.63;;;6.20;;
2972;SDS011;1496;51.404;7.232;2023-03-21T00:03:31;20.37;;;6.57;;
2972;SDS011;1496;51.404;7.232;2023-03-21T00:06:03;16.57;;;6.77;;
2972;SDS011;1496;51.404;7.232;2023-03-21T00:08:36;14.60;;;6.40;;
2972;SDS011;1496;51.404;7.232;2023-03-21T00:11:07;15.37;;;6.30;;
2972;SDS011;1496;51.404;7.232;2023-03-21T00:13:36;23.10;;;6.10;;
2972;SDS011;1496;51.404;7.232;2023-03-21T00:16:15;13.97;;;6.50;;
2972;SDS011;1496;51.404;7.232;2023-03-21T00:18:55;14.10;;;6.60;;
2972;SDS011;1496;51.404;7.232;2023-03-21T00:21:25;15.13;;;6.73;;
2972;SDS011;1496;51.404;7.232;2023-03-21T00:24:01;16.87;;;6.60;;
2972;SDS011;1496;51.404;7.232;2023-03-21T00:26:27;13.37;;;5.40;;
2972;SDS011;1496;51.404;7.232;2023-03-21T00:28:56;16.77;;;6.30;;
2972;SDS011;1496;51.404;7.232;2023-03-21T00:31:24;10.70;;;5.30;;
2972;SDS011;1496;51.404;7.232;2023-03-21T00:33:54;11.70;;;5.57;;
2972;SDS011;1496;51.404;7.232;2023-03-21T00:36:22;16.70;;;6.40;;
2972;SDS011;1496;51.404;7.232;2023-03-21T00:38:52;18.23;;;6.83;;
2972;SDS011;1496;51.404;7.232;2023-03-21T00:41:20;14.90;;;5.50;;
2972;SDS011;1496;51.404;7.232;2023-03-21T00:43:47;11.63;;;5.00;;
2972;SDS011;1496;51.404;7.232;2023-03-21T00:46:14;10.20;;;4.87;;
2972;SDS011;1496;51.404;7.232;2023-03-21T00:48:41;7.87;;;4.33;;
2972;SDS011;1496;51.404;7.232;2023-03-21T00:51:13;10.13;;;4.47;;
2972;SDS011;1496;51.404;7.232;2023-03-21T00:53:46;12.47;;;5.20;;
2972;SDS011;1496;51.404;7.232;2023-03-21T00:56:14;7.50;;;5.17;;
2972;SDS011;1496;51.404;7.232;2023-03-21T00:58:42;14.07;;;5.53;;
2972;SDS011;1496;51.404;7.232;2023-03-21T01:01:08;13.33;;;6.33;;
2972;SDS011;1496;51.404;7.232;2023-03-21T01:03:36;9.27;;;5.00;;
2972;SDS011;1496;51.404;7.232;2023-03-21T01:06:10;19.87;;;5.37;;
2972;SDS011;1496;51.404;7.232;2023-03-21T01:08:39;15.90;;;5.07;;
2972;SDS011;1496;51.404;7.232;2023-03-21T01:11:10;15.63;;;5.53;;
2972;SDS011;1496;51.404;7.232;2023-03-21T01:13:43;11.70;;;6.30;;
2972;SDS011;1496;51.404;7.232;2023-03-21T01:16:10;12.70;;;5.30;;
2972;SDS011;1496;51.404;7.232;2023-03-21T01:18:42;20.80;;;6.10;;
2972;SDS011;1496;51.404;7.232;2023-03-21T01:21:10;11.50;;;5.60;;
2972;SDS011;1496;51.404;7.232;2023-03-21T01:23:39;14.60;;;5.57;;
2972;SDS011;1496;51.404;7.232;2023-03-21T01:26:08;12.93;;;6.37;;
2972;SDS011;1496;51.404;7.232;2023-03-21T01:28:42;10.13;;;6.37;;
2972;SDS011;1496;51.404;7.232;2023-03-21T01:31:12;11.37;;;6.27;;
2972;SDS011;1496;51.404;7.232;2023-03-21T01:33:40;11.57;;;5.97;;
2972;SDS011;1496;51.404;7.232;2023-03-21T01:36:23;16.77;;;6.73;;
2972;SDS011;1496;51.404;7.232;2023-03-21T01:39:01;11.30;;;6.20;;
2972;SDS011;1496;51.404;7.232;2023-03-21T01:41:31;11.67;;;6.47;;
2972;SDS011;1496;51.404;7.232;2023-03-21T01:44:04;12.90;;;6.70;;
2972;SDS011;1496;51.404;7.232;2023-03-21T01:49:36;12.83;;;6.50;;
2972;SDS011;1496;51.404;7.232;2023-03-21T01:52:14;13.13;;;6.00;;
2972;SDS011;1496;51.404;7.232;2023-03-21T01:54:46;12.30;;;6.87;;
2972;SDS011;1496;51.404;7.232;2023-03-21T01:57:34;11.07;;;6.13;;
2972;SDS011;1496;51.404;7.232;2023-03-21T02:00:06;16.23;;;7.70;;
2972;SDS011;1496;51.404;7.232;2023-03-21T02:02:46;11.27;;;6.93;;
2972;SDS011;1496;51.404;7.232;2023-03-21T02:05:50;12.73;;;7.60;;
2972;SDS011;1496;51.404;7.232;2023-03-21T02:08:19;15.40;;;7.33;;
2972;SDS011;1496;51.404;7.232;2023-03-21T02:10:51;16.03;;;7.83;;
2972;SDS011;1496;51.404;7.232;2023-03-21T02:13:30;14.97;;;7.70;;
2972;SDS011;1496;51.404;7.232;2023-03-21T02:16:01;16.27;;;8.17;;
2972;SDS011;1496;51.404;7.232;2023-03-21T02:18:48;15.67;;;8.07;;
2972;SDS011;1496;51.404;7.232;2023-03-21T02:24:18;17.67;;;7.97;;
2972;SDS011;1496;51.404;7.232;2023-03-21T02:27:07;15.47;;;7.63;;
2972;SDS011;1496;51.404;7.232;2023-03-21T02:29:46;11.80;;;8.00;;
2972;SDS011;1496;51.404;7.232;2023-03-21T02:32:30;14.83;;;8.30;;
2972;SDS011;1496;51.404;7.232;2023-03-21T02:37:53;15.90;;;8.70;;
2972;SDS011;1496;51.404;7.232;2023-03-21T02:40:41;19.57;;;10.30;;
2972;SDS011;1496;51.404;7.232;2023-03-21T02:49:02;13.30;;;7.93;;
2972;SDS011;1496;51.404;7.232;2023-03-21T02:51:59;20.30;;;7.70;;
2972;SDS011;1496;51.404;7.232;2023-03-21T02:54:33;25.70;;;8.70;;
2972;SDS011;1496;51.404;7.232;2023-03-21T02:57:02;20.33;;;8.80;;
2972;SDS011;1496;51.404;7.232;2023-03-21T02:59:36;25.00;;;9.73;;
2972;SDS011;1496;51.404;7.232;2023-03-21T03:02:06;15.70;;;9.77;;
2972;SDS011;1496;51.404;7.232;2023-03-21T03:04:34;16.87;;;8.47;;
2972;SDS011;1496;51.404;7.232;2023-03-21T03:27:50;18.00;;;9.70;;
2972;SDS011;1496;51.404;7.232;2023-03-21T03:30:25;24.17;;;9.67;;
2972;SDS011;1496;51.404;7.232;2023-03-21T03:32:55;24.50;;;9.60;;
2972;SDS011;1496;51.404;7.232;2023-03-21T03:35:27;23.43;;;9.50;;
2972;SDS011;1496;51.404;7.232;2023-03-21T03:37:56;26.40;;;9.37;;
2972;SDS011;1496;51.404;7.232;2023-03-21T03:40:29;21.50;;;8.07;;
2972;SDS011;1496;51.404;7.232;2023-03-21T03:43:25;25.80;;;8.37;;
2972;SDS011;1496;51.404;7.232;2023-03-21T03:46:04;25.87;;;9.23;;
2972;SDS011;1496;51.404;7.232;2023-03-21T03:48:51;28.70;;;9.50;;
2972;SDS011;1496;51.404;7.232;2023-03-21T03:51:23;25.90;;;9.43;;
2972;SDS011;1496;51.404;7.232;2023-03-21T03:54:17;25.90;;;8.80;;
2972;SDS011;1496;51.404;7.232;2023-03-21T03:56:48;30.63;;;9.37;;
2972;SDS011;1496;51.404;7.232;2023-03-21T03:59:16;28.17;;;9.47;;
2972;SDS011;1496;51.404;7.232;2023-03-21T04:01:58;26.27;;;8.87;;
2972;SDS011;1496;51.404;7.232;2023-03-21T04:04:26;26.17;;;8.77;;
2972;SDS011;1496;51.404;7.232;2023-03-21T04:06:55;24.07;;;9.10;;
2972;SDS011;1496;51.404;7.232;2023-03-21T04:09:24;26.67;;;9.87;;
2972;SDS011;1496;51.404;7.232;2023-03-21T04:11:55;27.03;;;9.30;;
2972;SDS011;1496;51.404;7.232;2023-03-21T04:14:23;29.60;;;9.23;;
2972;SDS011;1496;51.404;7.232;2023-03-21T04:16:50;28.80;;;9.33;;
2972;SDS011;1496;51.404;7.232;2023-03-21T04:19:20;25.70;;;8.87;;
2972;SDS011;1496;51.404;7.232;2023-03-21T04:21:48;26.77;;;9.77;;
2972;SDS011;1496;51.404;7.232;2023-03-21T04:24:17;30.93;;;9.20;;
2972;SDS011;1496;51.404;7.232;2023-03-21T04:26:47;28.23;;;9.60;;
2972;SDS011;1496;51.404;7.232;2023-03-21T04:29:37;28.30;;;8.80;;
2972;SDS011;1496;51.404;7.232;2023-03-21T04:32:22;28.67;;;8.70;;
2972;SDS011;1496;51.404;7.232;2023-03-21T04:35:05;26.13;;;9.47;;
2972;SDS011;1496;51.404;7.232;2023-03-21T04:37:33;28.93;;;10.97;;
2972;SDS011;1496;51.404;7.232;2023-03-21T04:40:02;22.93;;;8.83;;
2972;SDS011;1496;51.404;7.232;2023-03-21T04:42:33;27.77;;;10.30;;
2972;SDS011;1496;51.404;7.232;2023-03-21T04:45:00;25.27;;;8.70;;
2972;SDS011;1496;51.404;7.232;2023-03-21T04:47:28;24.23;;;9.60;;
2972;SDS011;1496;51.404;7.232;2023-03-21T04:49:55;26.30;;;10.00;;
2972;SDS011;1496;51.404;7.232;2023-03-21T04:52:23;29.57;;;10.10;;
2972;SDS011;1496;51.404;7.232;2023-03-21T04:54:52;26.73;;;8.83;;
2972;SDS011;1496;51.404;7.232;2023-03-21T04:57:19;31.13;;;8.77;;
2972;SDS011;1496;51.404;7.232;2023-03-21T04:59:46;31.40;;;9.07;;
2972;SDS011;1496;51.404;7.232;2023-03-21T05:02:15;32.70;;;9.77;;
2972;SDS011;1496;51.404;7.232;2023-03-21T05:04:46;28.00;;;8.80;;
2972;SDS011;1496;51.404;7.232;2023-03-21T05:07:12;28.53;;;9.20;;
2972;SDS011;1496;51.404;7.232;2023-03-21T05:09:39;28.60;;;9.70;;
2972;SDS011;1496;51.404;7.232;2023-03-21T05:12:06;30.83;;;8.83;;
2972;SDS011;1496;51.404;7.232;2023-03-21T05:14:34;30.43;;;9.30;;
2972;SDS011;1496;51.404;7.232;2023-03-21T05:17:04;26.00;;;9.33;;
2972;SDS011;1496;51.404;7.232;2023-03-21T05:19:32;31.67;;;9.10;;
2972;SDS011;1496;51.404;7.232;2023-03-21T05:22:04;37.30;;;10.20;;
2972;SDS011;1496;51.404;7.232;2023-03-21T05:24:35;21.40;;;7.80;;
2972;SDS011;1496;51.404;7.232;2023-03-21T05:27:10;31.57;;;8.97;;
2972;SDS011;1496;51.404;7.232;2023-03-21T05:29:47;21.10;;;8.50;;
2972;SDS011;1496;51.404;7.232;2023-03-21T05:32:17;27.43;;;8.00;;
2972;SDS011;1496;51.404;7.232;2023-03-21T05:34:44;23.33;;;8.90;;
2972;SDS011;1496;51.404;7.232;2023-03-21T05:37:11;25.77;;;8.17;;
2972;SDS011;1496;51.404;7.232;2023-03-21T05:39:48;25.83;;;8.27;;
2972;SDS011;1496;51.404;7.232;2023-03-21T05:42:24;17.30;;;7.13;;
2972;SDS011;1496;51.404;7.232;2023-03-21T05:44:52;19.70;;;7.73;;
2972;SDS011;1496;51.404;7.232;2023-03-21T05:47:27;19.67;;;8.57;;
2972;SDS011;1496;51.404;7.232;2023-03-21T05:49:56;18.47;;;7.73;;
2972;SDS011;1496;51.404;7.232;2023-03-21T05:52:23;16.30;;;7.43;;
2972;SDS011;1496;51.404;7.232;2023-03-21T05:55:16;22.40;;;9.00;;
2972;SDS011;1496;51.404;7.232;2023-03-21T05:57:44;17.97;;;7.70;;
2972;SDS011;1496;51.404;7.232;2023-03-21T06:00:22;18.50;;;7.80;;
2972;SDS011;1496;51.404;7.232;2023-03-21T06:03:06;22.10;;;7.30;;
2972;SDS011;1496;51.404;7.232;2023-03-21T06:05:54;18.00;;;7.20;;
2972;SDS011;1496;51.404;7.232;2023-03-21T06:08:25;20.83;;;7.07;;
2972;SDS011;1496;51.404;7.232;2023-03-21T06:10:52;27.37;;;7.50;;
2972;SDS011;1496;51.404;7.232;2023-03-21T06:13:20;30.60;;;8.73;;
2972;SDS011;1496;51.404;7.232;2023-03-21T06:15:49;28.83;;;7.30;;
2972;SDS011;1496;51.404;7.232;2023-03-21T06:18:19;23.13;;;7.90;;
2972;SDS011;1496;51.404;7.232;2023-03-21T06:21:09;28.07;;;9.70;;
2972;SDS011;1496;51.404;7.232;2023-03-21T06:23:39;26.67;;;7.37;;
2972;SDS011;1496;51.404;7.232;2023-03-21T06:26:06;24.93;;;6.57;;
2972;SDS011;1496;51.404;7.232;2023-03-21T06:28:34;26.80;;;7.73;;
2972;SDS011;1496;51.404;7.232;2023-03-21T06:31:02;25.90;;;6.67;;
2972;SDS011;1496;51.404;7.232;2023-03-21T06:33:30;24.40;;;8.30;;
2972;SDS011;1496;51.404;7.232;2023-03-21T06:35:57;25.30;;;7.80;;
2972;SDS011;1496;51.404;7.232;2023-03-21T06:38:25;23.37;;;7.90;;
2972;SDS011;1496;51.404;7.232;2023-03-21T06:40:52;23.33;;;7.13;;
2972;SDS011;1496;51.404;7.232;2023-03-21T06:43:22;19.37;;;6.33;;
2972;SDS011;1496;51.404;7.232;2023-03-21T06:45:51;22.27;;;6.60;;
2972;SDS011;1496;51.404;7.232;2023-03-21T06:48:19;22.73;;;7.70;;
2972;SDS011;1496;51.404;7.232;2023-03-21T06:50:48;26.33;;;9.30;;
2972;SDS011;1496;51.404;7.232;2023-03-21T06:53:18;17.13;;;6.50;;
2972;SDS011;1496;51.404;7.232;2023-03-21T06:56:08;20.50;;;6.17;;
2972;SDS011;1496;51.404;7.232;2023-03-21T06:58:36;19.30;;;6.40;;
2972;SDS011;1496;51.404;7.232;2023-03-21T07:01:04;15.70;;;6.80;;
2972;SDS011;1496;51.404;7.232;2023-03-21T07:03:37;25.17;;;8.40;;
2972;SDS011;1496;51.404;7.232;2023-03-21T07:06:08;18.60;;;6.20;;
2972;SDS011;1496;51.404;7.232;2023-03-21T07:08:37;11.53;;;5.67;;
2972;SDS011;1496;51.404;7.232;2023-03-21T07:11:06;18.17;;;6.13;;
2972;SDS011;1496;51.404;7.232;2023-03-21T07:13:33;12.10;;;6.87;;
2972;SDS011;1496;51.404;7.232;2023-03-21T07:16:02;15.07;;;6.43;;
2972;SDS011;1496;51.404;7.232;2023-03-21T07:18:29;14.70;;;6.43;;
2972;SDS011;1496;51.404;7.232;2023-03-21T07:20:55;10.37;;;6.17;;
2972;SDS011;1496;51.404;7.232;2023-03-21T07:23:22;18.10;;;7.23;;
2972;SDS011;1496;51.404;7.232;2023-03-21T07:25:50;10.63;;;7.17;;
2972;SDS011;1496;51.404;7.232;2023-03-21T07:28:17;12.83;;;6.50;;
2972;SDS011;1496;51.404;7.232;2023-03-21T07:30:44;9.60;;;6.30;;
2972;SDS011;1496;51.404;7.232;2023-03-21T07:33:18;9.57;;;7.20;;
2972;SDS011;1496;51.404;7.232;2023-03-21T07:35:49;15.07;;;7.87;;
2972;SDS011;1496;51.404;7.232;2023-03-21T07:38:17;14.80;;;6.70;;
2972;SDS011;1496;51.404;7.232;2023-03-21T07:40:46;12.33;;;7.00;;
2972;SDS011;1496;51.404;7.232;2023-03-21T07:43:13;13.87;;;6.50;;
2972;SDS011;1496;51.404;7.232;2023-03-21T07:45:43;25.90;;;7.10;;
2972;SDS011;1496;51.404;7.232;2023-03-21T07:48:10;23.10;;;7.83;;
2972;SDS011;1496;51.404;7.232;2023-03-21T07:50:42;11.57;;;6.87;;
2972;SDS011;1496;51.404;7.232;2023-03-21T07:53:08;14.20;;;7.37;;
2972;SDS011;1496;51.404;7.232;2023-03-21T07:55:35;14.97;;;6.70;;
2972;SDS011;1496;51.404;7.232;2023-03-21T07:58:07;14.17;;;7.40;;
2972;SDS011;1496;51.404;7.232;2023-03-21T08:00:34;13.47;;;6.37;;
2972;SDS011;1496;51.404;7.232;2023-03-21T08:03:01;19.10;;;7.70;;
2972;SDS011;1496;51.404;7.232;2023-03-21T08:05:29;15.30;;;6.60;;
2972;SDS011;1496;51.404;7.232;2023-03-21T08:08:00;17.30;;;6.83;;
2972;SDS011;1496;51.404;7.232;2023-03-21T08:10:27;20.43;;;7.30;;
2972;SDS011;1496;51.404;7.232;2023-03-21T08:12:55;15.50;;;7.93;;
2972;SDS011;1496;51.404;7.232;2023-03-21T08:15:26;20.80;;;7.77;;
2972;SDS011;1496;51.404;7.232;2023-03-21T08:17:53;18.80;;;8.40;;
2972;SDS011;1496;51.404;7.232;2023-03-21T08:20:21;14.57;;;7.70;;
2972;SDS011;1496;51.404;7.232;2023-03-21T08:22:48;15.20;;;7.70;;
2972;SDS011;1496;51.404;7.232;2023-03-21T08:25:16;14.40;;;7.20;;
2972;SDS011;1496;51.404;7.232;2023-03-21T08:27:46;13.90;;;7.50;;
2972;SDS011;1496;51.404;7.232;2023-03-21T08:30:16;13.70;;;7.00;;
2972;SDS011;1496;51.404;7.232;2023-03-21T08:32:54;15.27;;;7.03;;
2972;SDS011;1496;51.404;7.232;2023-03-21T08:35:23;12.80;;;6.83;;
2972;SDS011;1496;51.404;7.232;2023-03-21T08:37:49;14.00;;;6.57;;
2972;SDS011;1496;51.404;7.232;2023-03-21T08:40:17;11.93;;;6.97;;
2972;SDS011;1496;51.404;7.232;2023-03-21T08:42:45;14.40;;;7.50;;
2972;SDS011;1496;51.404;7.232;2023-03-21T08:45:13;9.27;;;6.03;;
2972;SDS011;1496;51.404;7.232;2023-03-21T08:47:41;17.80;;;7.13;;
2972;SDS011;1496;51.404;7.232;2023-03-21T08:50:10;13.67;;;6.20;;
2972;SDS011;1496;51.404;7.232;2023-03-21T08:52:38;13.07;;;6.63;;
2972;SDS011;1496;51.404;7.232;2023-03-21T08:55:06;19.53;;;7.60;;
2972;SDS011;1496;51.404;7.232;2023-03-21T08:57:34;19.00;;;7.00;;
2972;SDS011;1496;51.404;7.232;2023-03-21T09:00:01;17.13;;;8.37;;
2972;SDS011;1496;51.404;7.232;2023-03-21T09:02:32;13.53;;;7.93;;
2972;SDS011;1496;51.404;7.232;2023-03-21T09:05:01;10.83;;;6.97;;
2972;SDS011;1496;51.404;7.232;2023-03-21T09:07:30;15.60;;;7.73;;
2972;SDS011;1496;51.404;7.232;2023-03-21T09:09:59;12.00;;;6.43;;
2972;SDS011;1496;51.404;7.232;2023-03-21T09:12:34;13.37;;;7.43;;
2972;SDS011;1496;51.404;7.232;2023-03-21T09:15:02;13.77;;;7.97;;
2972;SDS011;1496;51.404;7.232;2023-03-21T09:17:30;11.40;;;8.10;;
2972;SDS011;1496;51.404;7.232;2023-03-21T09:19:57;11.83;;;8.33;;
2972;SDS011;1496;51.404;7.232;2023-03-21T09:22:26;12.10;;;8.10;;
2972;SDS011;1496;51.404;7.232;2023-03-21T09:24:53;12.03;;;6.90;;
2972;SDS011;1496;51.404;7.232;2023-03-21T09:27:20;15.03;;;6.90;;
2972;SDS011;1496;51.404;7.232;2023-03-21T09:29:48;10.10;;;6.00;;
2972;SDS011;1496;51.404;7.232;2023-03-21T09:32:15;11.83;;;6.50;;
2972;SDS011;1496;51.404;7.232;2023-03-21T09:34:46;16.13;;;6.33;;
2972;SDS011;1496;51.404;7.232;2023-03-21T09:37:14;12.37;;;7.70;;
2972;SDS011;1496;51.404;7.232;2023-03-21T09:39:41;11.73;;;6.73;;
2972;SDS011;1496;51.404;7.232;2023-03-21T09:45:20;8.07;;;5.40;;
2972;SDS011;1496;51.404;7.232;2023-03-21T09:48:01;9.60;;;5.60;;
2972;SDS011;1496;51.404;7.232;2023-03-21T09:50:36;7.23;;;4.33;;
2972;SDS011;1496;51.404;7.232;2023-03-21T09:53:16;8.63;;;5.40;;
2972;SDS011;1496;51.404;7.232;2023-03-21T09:55:55;9.43;;;5.30;;
2972;SDS011;1496;51.404;7.232;2023-03-21T09:58:31;14.13;;;6.07;;
2972;SDS011;1496;51.404;7.232;2023-03-21T10:01:11;12.33;;;5.83;;
2972;SDS011;1496;51.404;7.232;2023-03-21T10:03:52;8.60;;;4.50;;
2972;SDS011;1496;51.404;7.232;2023-03-21T10:06:21;8.23;;;5.70;;
2972;SDS011;1496;51.404;7.232;2023-03-21T10:09:27;7.73;;;4.83;;
2972;SDS011;1496;51.404;7.232;2023-03-21T10:11:50;11.33;;;4.70;;
2972;SDS011;1496;51.404;7.232;2023-03-21T10:14:34;10.13;;;5.70;;
2972;SDS011;1496;51.404;7.232;2023-03-21T10:19:59;6.33;;;4.40;;
2972;SDS011;1496;51.404;7.232;2023-03-21T10:22:53;6.60;;;3.97;;
2972;SDS011;1496;51.404;7.232;2023-03-21T10:25:24;9.67;;;3.97;;
2972;SDS011;1496;51.404;7.232;2023-03-21T10:27:58;7.53;;;4.03;;
2972;SDS011;1496;51.404;7.232;2023-03-21T10:30:29;7.53;;;3.80;;
2972;SDS011;1496;51.404;7.232;2023-03-21T10:33:05;6.50;;;3.57;;
2972;SDS011;1496;51.404;7.232;2023-03-21T10:35:44;5.77;;;3.20;;
2972;SDS011;1496;51.404;7.232;2023-03-21T10:38:18;9.90;;;4.30;;
2972;SDS011;1496;51.404;7.232;2023-03-21T10:40:47;6.20;;;3.60;;
2972;SDS011;1496;51.404;7.232;2023-03-21T10:43:16;11.27;;;3.67;;
2972;SDS011;1496;51.404;7.232;2023-03-21T10:45:49;11.33;;;3.93;;
2972;SDS011;1496;51.404;7.232;2023-03-21T10:48:18;6.77;;;3.17;;
2972;SDS011;1496;51.404;7.232;2023-03-21T10:51:02;6.47;;;3.80;;
2972;SDS011;1496;51.404;7.232;2023-03-21T10:53:37;4.10;;;3.07;;
2972;SDS011;1496;51.404;7.232;2023-03-21T10:56:07;7.80;;;4.30;;
2972;SDS011;1496;51.404;7.232;2023-03-21T10:58:45;7.23;;;3.73;;
2972;SDS011;1496;51.404;7.232;2023-03-21T11:04:19;10.30;;;3.90;;
2972;SDS011;1496;51.404;7.232;2023-03-21T11:06:54;9.53;;;3.80;;
2972;SDS011;1496;51.404;7.232;2023-03-21T11:09:24;8.37;;;3.90;;
2972;SDS011;1496;51.404;7.232;2023-03-21T11:12:11;5.23;;;3.43;;
2972;SDS011;1496;51.404;7.232;2023-03-21T11:14:46;10.60;;;4.20;;
2972;SDS011;1496;51.404;7.232;2023-03-21T11:22:23;9.10;;;3.27;;
2972;SDS011;1496;51.404;7.232;2023-03-21T11:24:58;9.83;;;4.13;;
2972;SDS011;1496;51.404;7.232;2023-03-21T11:27:27;7.80;;;3.90;;
2972;SDS011;1496;51.404;7.232;2023-03-21T11:29:56;11.87;;;3.70;;
2972;SDS011;1496;51.404;7.232;2023-03-21T11:32:36;9.13;;;4.00;;
2972;SDS011;1496;51.404;7.232;2023-03-21T11:35:05;8.30;;;4.10;;
2972;SDS011;1496;51.404;7.232;2023-03-21T11:37:44;9.40;;;3.60;;
2972;SDS011;1496;51.404;7.232;2023-03-21T11:42:53;6.67;;;3.33;;
2972;SDS011;1496;51.404;7.232;2023-03-21T11:45:26;8.50;;;3.10;;
2972;SDS011;1496;51.404;7.232;2023-03-21T11:47:55;11.17;;;3.50;;
2972;SDS011;1496;51.404;7.232;2023-03-21T11:50:33;11.53;;;3.23;;
2972;SDS011;1496;51.404;7.232;2023-03-21T12:01:36;12.40;;;4.63;;
2972;SDS011;1496;51.404;7.232;2023-03-21T12:07:34;17.80;;;3.93;;
2972;SDS011;1496;51.404;7.232;2023-03-21T12:15:47;10.30;;;3.67;;
2972;SDS011;1496;51.404;7.232;2023-03-21T12:20:53;12.33;;;3.60;;
2972;SDS011;1496;51.404;7.232;2023-03-21T12:26:30;13.30;;;3.70;;
2972;SDS011;1496;51.404;7.232;2023-03-21T12:29:27;14.77;;;3.43;;
2972;SDS011;1496;51.404;7.232;2023-03-21T12:33:01;14.90;;;3.50;;
2972;SDS011;1496;51.404;7.232;2023-03-21T12:35:21;11.80;;;3.27;;
2972;SDS011;1496;51.404;7.232;2023-03-21T12:46:14;20.27;;;3.63;;
2972;SDS011;1496;51.404;7.232;2023-03-21T12:49:00;18.03;;;3.20;;
2972;SDS011;1496;51.404;7.232;2023-03-21T12:51:35;20.20;;;3.50;;
2972;SDS011;1496;51.404;7.232;2023-03-21T12:57:46;17.23;;;2.90;;
2972;SDS011;1496;51.404;7.232;2023-03-21T13:00:17;15.87;;;3.53;;
2972;SDS011;1496;51.404;7.232;2023-03-21T13:02:48;15.40;;;3.93;;
2972;SDS011;1496;51.404;7.232;2023-03-21T13:05:26;11.57;;;3.50;;
2972;SDS011;1496;51.404;7.232;2023-03-21T13:08:20;11.43;;;3.57;;
2972;SDS011;1496;51.404;7.232;2023-03-21T13:11:04;12.27;;;3.40;;
2972;SDS011;1496;51.404;7.232;2023-03-21T13:16:28;7.83;;;3.30;;
2972;SDS011;1496;51.404;7.232;2023-03-21T13:19:22;8.73;;;4.07;;
2972;SDS011;1496;51.404;7.232;2023-03-21T13:24:40;11.60;;;4.47;;
2972;SDS011;1496;51.404;7.232;2023-03-21T13:27:17;10.13;;;3.83;;
2972;SDS011;1496;51.404;7.232;2023-03-21T13:32:34;10.77;;;4.03;;
2972;SDS011;1496;51.404;7.232;2023-03-21T13:38:11;8.83;;;3.40;;
2972;SDS011;1496;51.404;7.232;2023-03-21T13:40:58;9.90;;;3.27;;
2972;SDS011;1496;51.404;7.232;2023-03-21T13:43:33;7.47;;;3.57;;
2972;SDS011;1496;51.404;7.232;2023-03-21T13:54:15;11.30;;;3.37;;
2972;SDS011;1496;51.404;7.232;2023-03-21T13:56:50;10.90;;;4.30;;
2972;SDS011;1496;51.404;7.232;2023-03-21T14:04:43;14.37;;;3.67;;
2972;SDS011;1496;51.404;7.232;2023-03-21T14:07:11;14.57;;;4.50;;
2972;SDS011;1496;51.404;7.232;2023-03-21T14:09:47;13.53;;;4.00;;
2972;SDS011;1496;51.404;7.232;2023-03-21T14:12:18;13.40;;;3.83;;
2972;SDS011;1496;51.404;7.232;2023-03-21T14:14:52;11.43;;;3.90;;
2972;SDS011;1496;51.404;7.232;2023-03-21T14:17:31;17.70;;;4.37;;
2972;SDS011;1496;51.404;7.232;2023-03-21T14:20:12;17.10;;;3.93;;
2972;SDS011;1496;51.404;7.232;2023-03-21T14:22:56;14.73;;;4.40;;
2972;SDS011;1496;51.404;7.232;2023-03-21T14:25:23;14.60;;;4.63;;
2972;SDS011;1496;51.404;7.232;2023-03-21T14:27:52;15.00;;;4.13;;
2972;SDS011;1496;51.404;7.232;2023-03-21T14:30:24;16.13;;;4.10;;
2972;SDS011;1496;51.404;7.232;2023-03-21T14:32:55;24.60;;;4.40;;
2972;SDS011;1496;51.404;7.232;2023-03-21T14:35:29;19.17;;;4.30;;
2972;SDS011;1496;51.404;7.232;2023-03-21T14:38:04;16.73;;;4.20;;
2972;SDS011;1496;51.404;7.232;2023-03-21T14:40:34;16.10;;;4.43;;
2972;SDS011;1496;51.404;7.232;2023-03-21T14:43:04;16.23;;;4.13;;
2972;SDS011;1496;51.404;7.232;2023-03-21T14:45:33;17.63;;;3.77;;
2972;SDS011;1496;51.404;7.232;2023-03-21T14:48:07;18.00;;;4.17;;
2972;SDS011;1496;51.404;7.232;2023-03-21T14:53:05;19.03;;;4.30;;
2972;SDS011;1496;51.404;7.232;2023-03-21T14:55:40;19.27;;;4.70;;
2972;SDS011;1496;51.404;7.232;2023-03-21T14:58:10;23.50;;;4.20;;
2972;SDS011;1496;51.404;7.232;2023-03-21T15:00:38;20.00;;;3.87;;
2972;SDS011;1496;51.404;7.232;2023-03-21T15:03:05;18.13;;;3.97;;
2972;SDS011;1496;51.404;7.232;2023-03-21T15:05:34;22.73;;;4.43;;
2972;SDS011;1496;51.404;7.232;2023-03-21T15:08:08;19.57;;;3.90;;
2972;SDS011;1496;51.404;7.232;2023-03-21T15:10:41;19.30;;;3.80;;
2972;SDS011;1496;51.404;7.232;2023-03-21T15:13:35;18.50;;;4.00;;
2972;SDS011;1496;51.404;7.232;2023-03-21T15:16:10;21.90;;;3.67;;
2972;SDS011;1496;51.404;7.232;2023-03-21T15:18:39;24.20;;;4.07;;
2972;SDS011;1496;51.404;7.232;2023-03-21T15:21:20;18.20;;;3.93;;
2972;SDS011;1496;51.404;7.232;2023-03-21T15:23:53;16.93;;;3.70;;
2972;SDS011;1496;51.404;7.232;2023-03-21T15:26:24;16.87;;;4.20;;
2972;SDS011;1496;51.404;7.232;2023-03-21T15:28:56;13.47;;;3.20;;
2972;SDS011;1496;51.404;7.232;2023-03-21T15:31:30;8.53;;;3.27;;
2972;SDS011;1496;51.404;7.232;2023-03-21T15:34:00;7.50;;;3.30;;
2972;SDS011;1496;51.404;7.232;2023-03-21T15:36:36;12.57;;;3.40;;
2972;SDS011;1496;51.404;7.232;2023-03-21T15:39:11;9.90;;;3.80;;
2972;SDS011;1496;51.404;7.232;2023-03-21T15:41:40;10.20;;;3.87;;
2972;SDS011;1496;51.404;7.232;2023-03-21T15:44:22;6.10;;;2.90;;
2972;SDS011;1496;51.404;7.232;2023-03-21T15:46:53;8.80;;;3.07;;
2972;SDS011;1496;51.404;7.232;2023-03-21T15:49:25;7.33;;;3.27;;
2972;SDS011;1496;51.404;7.232;2023-03-21T15:54:44;5.27;;;3.40;;
2972;SDS011;1496;51.404;7.232;2023-03-21T15:57:21;4.47;;;3.50;;
2972;SDS011;1496;51.404;7.232;2023-03-21T15:59:54;8.97;;;4.13;;
2972;SDS011;1496;51.404;7.232;2023-03-21T16:02:24;6.83;;;3.40;;
2972;SDS011;1496;51.404;7.232;2023-03-21T16:07:24;4.00;;;3.27;;
2972;SDS011;1496;51.404;7.232;2023-03-21T16:09:56;7.23;;;3.10;;
2972;SDS011;1496;51.404;7.232;2023-03-21T16:12:26;3.67;;;2.97;;
2972;SDS011;1496;51.404;7.232;2023-03-21T16:14:52;6.00;;;3.13;;
2972;SDS011;1496;51.404;7.232;2023-03-21T16:17:27;9.13;;;3.53;;
2972;SDS011;1496;51.404;7.232;2023-03-21T16:19:58;4.97;;;3.40;;
2972;SDS011;1496;51.404;7.232;2023-03-21T16:22:26;6.03;;;3.07;;
2972;SDS011;1496;51.404;7.232;2023-03-21T16:24:55;4.50;;;3.20;;
2972;SDS011;1496;51.404;7.232;2023-03-21T16:27:21;7.63;;;3.90;;
2972;SDS011;1496;51.404;7.232;2023-03-21T16:29:49;6.37;;;3.43;;
2972;SDS011;1496;51.404;7.232;2023-03-21T16:32:17;4.53;;;3.97;;
2972;SDS011;1496;51.404;7.232;2023-03-21T16:34:44;6.23;;;3.70;;
2972;SDS011;1496;51.404;7.232;2023-03-21T16:37:12;5.53;;;2.60;;
2972;SDS011;1496;51.404;7.232;2023-03-21T16:39:43;9.43;;;4.00;;
2972;SDS011;1496;51.404;7.232;2023-03-21T16:42:11;6.77;;;3.60;;
2972;SDS011;1496;51.404;7.232;2023-03-21T16:44:38;4.43;;;3.50;;
2972;SDS011;1496;51.404;7.232;2023-03-21T16:47:13;4.47;;;3.33;;
2972;SDS011;1496;51.404;7.232;2023-03-21T16:49:43;5.53;;;3.57;;
2972;SDS011;1496;51.404;7.232;2023-03-21T16:52:10;6.27;;;3.47;;
2972;SDS011;1496;51.404;7.232;2023-03-21T16:54:39;7.10;;;3.30;;
2972;SDS011;1496;51.404;7.232;2023-03-21T16:57:26;6.17;;;3.80;;
2972;SDS011;1496;51.404;7.232;2023-03-21T16:59:54;6.83;;;4.20;;
2972;SDS011;1496;51.404;7.232;2023-03-21T17:02:20;6.17;;;3.63;;
2972;SDS011;1496;51.404;7.232;2023-03-21T17:04:50;5.80;;;3.30;;
2972;SDS011;1496;51.404;7.232;2023-03-21T17:07:18;4.83;;;3.47;;
2972;SDS011;1496;51.404;7.232;2023-03-21T17:09:45;6.93;;;3.97;;
2972;SDS011;1496;51.404;7.232;2023-03-21T17:12:13;4.70;;;2.73;;
2972;SDS011;1496;51.404;7.232;2023-03-21T17:14:43;6.50;;;3.20;;
2972;SDS011;1496;51.404;7.232;2023-03-21T17:17:14;4.83;;;3.90;;
2972;SDS011;1496;51.404;7.232;2023-03-21T17:19:42;8.40;;;3.80;;
2972;SDS011;1496;51.404;7.232;2023-03-21T17:22:11;5.73;;;3.87;;
2972;SDS011;1496;51.404;7.232;2023-03-21T17:24:38;11.23;;;4.70;;
2972;SDS011;1496;51.404;7.232;2023-03-21T17:27:06;6.60;;;3.50;;
2972;SDS011;1496;51.404;7.232;2023-03-21T17:29:42;5.90;;;3.90;;
2972;SDS011;1496;51.404;7.232;2023-03-21T17:32:10;3.93;;;3.27;;
2972;SDS011;1496;51.404;7.232;2023-03-21T17:34:37;5.20;;;3.13;;
2972;SDS011;1496;51.404;7.232;2023-03-21T17:37:04;7.30;;;4.03;;